createdAt,value
2023-05-20T00:00:14.551Z,93.88
2023-05-20T00:02:41.269Z,94.58
2023-05-20T00:05:07.960Z,99.24
2023-05-20T00:07:34.558Z,96.74
2023-05-20T00:10:01.210Z,91.23
2023-05-20T00:12:27.790Z,92.12
2023-05-20T00:14:55.886Z,92.21
2023-05-20T00:17:22.730Z,92.13
2023-05-20T00:19:49.317Z,91.18
2023-05-20T00:22:15.998Z,92.23
2023-05-20T00:24:42.571Z,91.57
2023-05-20T00:27:09.149Z,95.86
2023-05-20T00:29:35.749Z,94.13
2023-05-20T00:32:02.423Z,89.72
2023-05-20T00:34:28.983Z,91.89
2023-05-20T00:36:55.597Z,92.25
2023-05-20T00:39:22.191Z,91.28
2023-05-20T00:41:48.858Z,89.32
2023-05-20T00:44:15.457Z,90.05
2023-05-20T00:46:42.035Z,88.80
2023-05-20T00:49:09.931Z,87.04
2023-05-20T00:51:36.579Z,88.64
2023-05-20T00:54:03.169Z,87.95
2023-05-20T00:56:29.696Z,86.78
2023-05-20T00:58:56.299Z,89.31
2023-05-20T01:01:22.940Z,89.15
2023-05-20T01:03:49.624Z,88.72
2023-05-20T01:06:16.270Z,87.33
2023-05-20T01:08:42.926Z,84.70
2023-05-20T01:11:09.510Z,82.65
2023-05-20T01:13:36.055Z,84.52
2023-05-20T01:16:02.691Z,85.78
2023-05-20T01:18:29.242Z,86.67
2023-05-20T01:20:55.813Z,87.63
2023-05-20T01:23:22.346Z,85.84
2023-05-20T01:25:48.873Z,86.75
2023-05-20T01:28:15.481Z,84.47
2023-05-20T01:30:42.191Z,82.39
2023-05-20T01:33:09.035Z,84.24
2023-05-20T01:35:35.986Z,82.93
2023-05-20T01:38:02.824Z,82.96
2023-05-20T01:40:29.407Z,77.47
2023-05-20T01:42:56.002Z,82.66
2023-05-20T01:45:22.576Z,83.51
2023-05-20T01:47:49.097Z,83.45
2023-05-20T01:50:15.686Z,82.37
2023-05-20T01:52:42.203Z,82.52
2023-05-20T01:55:08.793Z,85.02
2023-05-20T01:57:35.309Z,83.18
2023-05-20T02:00:01.848Z,80.93
2023-05-20T02:02:28.558Z,79.76
2023-05-20T02:04:55.166Z,77.19
2023-05-20T02:07:21.795Z,81.64
2023-05-20T02:09:48.358Z,82.20
2023-05-20T02:12:14.947Z,77.98
2023-05-20T02:14:41.600Z,81.27
2023-05-20T02:17:08.193Z,80.30
2023-05-20T02:19:34.753Z,80.66
2023-05-20T02:22:01.357Z,80.68
2023-05-20T02:24:27.988Z,77.26
2023-05-20T02:26:54.586Z,78.16
2023-05-20T02:29:21.194Z,78.29
2023-05-20T02:31:47.768Z,78.69
2023-05-20T02:34:14.333Z,78.31
2023-05-20T02:36:40.920Z,76.85
2023-05-20T02:39:07.516Z,79.28
2023-05-20T02:41:36.016Z,77.68
2023-05-20T02:44:02.577Z,74.91
2023-05-20T02:46:29.207Z,76.05
2023-05-20T02:48:55.889Z,76.20
2023-05-20T02:51:22.372Z,76.15
2023-05-20T02:53:48.926Z,74.17
2023-05-20T02:56:15.518Z,75.06
2023-05-20T02:58:42.088Z,76.92
2023-05-20T03:01:08.677Z,77.92
2023-05-20T03:03:35.280Z,72.21
2023-05-20T03:06:01.858Z,74.20
2023-05-20T03:08:28.448Z,73.21
2023-05-20T03:10:55.032Z,70.27
2023-05-20T03:13:21.545Z,71.19
2023-05-20T03:15:48.186Z,75.81
2023-05-20T03:18:14.799Z,71.74
2023-05-20T03:20:41.337Z,74.70
2023-05-20T03:23:08.035Z,73.52
2023-05-20T03:25:34.797Z,73.26
2023-05-20T03:28:01.659Z,70.09
2023-05-20T03:30:28.181Z,73.01
2023-05-20T03:32:54.832Z,72.52
2023-05-20T03:35:21.429Z,71.63
2023-05-20T03:37:48.047Z,69.89
2023-05-20T03:40:14.584Z,71.18
2023-05-20T03:42:41.203Z,69.91
2023-05-20T03:45:07.728Z,72.47
2023-05-20T03:47:34.311Z,70.87
2023-05-20T03:50:00.894Z,71.93
2023-05-20T03:52:27.510Z,70.10
2023-05-20T03:54:54.028Z,69.66
2023-05-20T03:57:20.525Z,69.12
2023-05-20T03:59:47.120Z,68.84
2023-05-20T04:02:13.814Z,69.47
2023-05-20T04:04:40.379Z,69.42
2023-05-20T04:07:07.038Z,70.87
2023-05-20T04:09:33.574Z,68.02
2023-05-20T04:12:00.167Z,67.48
2023-05-20T04:14:26.809Z,65.76
2023-05-20T04:16:53.393Z,68.01
2023-05-20T04:19:19.976Z,67.04
2023-05-20T04:21:46.576Z,66.95
2023-05-20T04:24:13.066Z,64.93
2023-05-20T04:26:39.632Z,67.23
2023-05-20T04:29:06.214Z,64.64
2023-05-20T04:31:32.925Z,64.79
2023-05-20T04:33:59.569Z,67.31
2023-05-20T04:36:26.209Z,66.52
2023-05-20T04:38:52.682Z,66.05
2023-05-20T04:41:19.298Z,67.56
2023-05-20T04:43:45.788Z,65.38
2023-05-20T04:46:12.402Z,64.81
2023-05-20T04:48:39.049Z,65.57
2023-05-20T04:51:05.650Z,63.27
2023-05-20T04:53:32.155Z,64.40
2023-05-20T04:55:58.648Z,62.13
2023-05-20T04:58:25.255Z,63.56
2023-05-20T05:00:51.893Z,66.60
2023-05-20T05:03:18.410Z,61.19
2023-05-20T05:05:44.964Z,63.89
2023-05-20T05:08:11.468Z,65.97
2023-05-20T05:10:38.048Z,75.46
2023-05-20T05:13:04.644Z,76.70
2023-05-20T05:15:31.325Z,79.17
2023-05-20T05:17:58.021Z,77.05
2023-05-20T05:20:24.613Z,80.03
2023-05-20T05:22:51.139Z,82.76
2023-05-20T05:25:17.612Z,89.30
2023-05-20T05:27:44.123Z,86.43
2023-05-20T05:30:10.629Z,89.58
2023-05-20T05:32:37.215Z,88.19
2023-05-20T05:35:05.484Z,88.71
2023-05-20T05:37:33.187Z,89.86
2023-05-20T05:39:59.812Z,91.26
2023-05-20T05:42:26.329Z,88.27
2023-05-20T05:44:52.877Z,89.16
2023-05-20T05:47:19.441Z,89.30
2023-05-20T05:49:46.031Z,92.97
2023-05-20T05:52:12.505Z,89.85
2023-05-20T05:54:39.014Z,91.39
2023-05-20T05:57:08.616Z,90.98
2023-05-20T05:59:35.384Z,91.65
2023-05-20T06:02:01.990Z,89.08
2023-05-20T06:04:28.613Z,89.78
2023-05-20T06:06:55.306Z,92.38
2023-05-20T06:09:21.861Z,94.17
2023-05-20T06:11:48.387Z,86.98
2023-05-20T06:14:14.878Z,86.63
2023-05-20T06:16:41.467Z,89.73
2023-05-20T06:19:08.033Z,89.03
2023-05-20T06:21:34.690Z,86.93
2023-05-20T06:24:01.262Z,89.74
2023-05-20T06:26:27.729Z,88.42
2023-05-20T06:28:54.297Z,86.73
2023-05-20T06:31:20.872Z,84.36
2023-05-20T06:33:47.436Z,83.90
2023-05-20T06:36:16.895Z,85.50
2023-05-20T06:38:43.507Z,85.21
2023-05-20T06:41:10.046Z,82.16
2023-05-20T06:43:36.564Z,82.25
2023-05-20T06:46:03.145Z,82.74
2023-05-20T06:48:29.816Z,79.34
2023-05-20T06:50:56.305Z,79.10
2023-05-20T06:53:22.771Z,76.11
2023-05-20T06:55:49.261Z,78.85
2023-05-20T06:58:15.696Z,79.42
2023-05-20T07:00:42.279Z,82.23
2023-05-20T07:03:08.824Z,81.74
2023-05-20T07:05:35.545Z,82.71
2023-05-20T07:08:05.097Z,84.04
2023-05-20T07:10:31.752Z,79.86
2023-05-20T07:12:58.368Z,79.10
2023-05-20T07:15:24.849Z,81.71
2023-05-20T07:17:51.425Z,76.78
2023-05-20T07:20:18.033Z,78.31
2023-05-20T07:22:44.560Z,74.17
2023-05-20T07:25:11.116Z,73.06
2023-05-20T07:27:37.685Z,71.16
2023-05-20T07:30:04.232Z,73.80
2023-05-20T07:32:30.905Z,68.88
2023-05-20T07:34:57.589Z,69.92
2023-05-20T07:37:24.147Z,66.18
2023-05-20T07:39:50.656Z,70.74
2023-05-20T07:42:17.135Z,65.12
2023-05-20T07:44:43.694Z,63.08
2023-05-20T07:47:10.193Z,63.71
2023-05-20T07:49:36.715Z,61.00
2023-05-20T07:52:03.353Z,60.99
2023-05-20T07:54:29.897Z,62.19
2023-05-20T07:56:56.465Z,59.65
2023-05-20T07:59:23.034Z,60.57
2023-05-20T08:01:49.631Z,60.40
2023-05-20T08:04:16.273Z,55.92
2023-05-20T08:06:42.868Z,55.81
2023-05-20T08:09:09.370Z,56.32
2023-05-20T08:11:35.907Z,55.83
2023-05-20T08:14:02.430Z,55.98
2023-05-20T08:16:29.021Z,58.75
2023-05-20T08:18:55.632Z,53.12
2023-05-20T08:21:22.122Z,55.49
2023-05-20T08:23:48.610Z,53.08
2023-05-20T08:26:15.160Z,52.70
2023-05-20T08:28:41.625Z,53.14
2023-05-20T08:31:08.285Z,53.18
2023-05-20T08:33:34.880Z,52.56
2023-05-20T08:36:01.442Z,53.24
2023-05-20T08:38:27.979Z,53.64
2023-05-20T08:40:54.509Z,53.59
2023-05-20T08:43:21.115Z,51.69
2023-05-20T08:45:47.746Z,54.31
2023-05-20T08:48:14.299Z,50.55
2023-05-20T08:50:40.902Z,51.77
2023-05-20T08:53:07.441Z,52.94
2023-05-20T08:55:34.171Z,52.79
2023-05-20T08:58:00.838Z,50.34
2023-05-20T09:00:27.463Z,52.41
2023-05-20T09:02:54.060Z,51.01
2023-05-20T09:05:20.813Z,51.56
2023-05-20T09:07:47.398Z,49.02
2023-05-20T09:10:13.950Z,49.49
2023-05-20T09:12:40.549Z,50.02
2023-05-20T09:15:07.157Z,48.73
2023-05-20T09:17:33.812Z,49.31
2023-05-20T09:20:00.363Z,49.80
2023-05-20T09:22:26.911Z,48.39
2023-05-20T09:24:53.502Z,44.89
2023-05-20T09:27:20.094Z,49.09
2023-05-20T09:29:46.676Z,47.44
2023-05-20T09:32:13.319Z,45.32
2023-05-20T09:34:39.973Z,45.61
2023-05-20T09:37:06.562Z,44.62
2023-05-20T09:39:33.214Z,44.70
2023-05-20T09:42:00.261Z,44.31
2023-05-20T09:44:27.991Z,45.59
2023-05-20T09:46:54.598Z,44.49
2023-05-20T09:49:21.187Z,46.42
2023-05-20T09:51:47.787Z,43.53
2023-05-20T09:54:14.328Z,44.54
2023-05-20T09:56:40.918Z,47.22
2023-05-20T09:59:07.526Z,44.09
2023-05-20T10:01:34.107Z,47.37
2023-05-20T10:04:00.690Z,47.11
2023-05-20T10:06:27.300Z,45.12
2023-05-20T10:08:55.735Z,45.38
2023-05-20T10:11:23.670Z,44.18
2023-05-20T10:13:50.173Z,44.03
2023-05-20T10:16:16.795Z,43.39
2023-05-20T10:18:43.376Z,43.94
2023-05-20T10:21:09.932Z,43.24
2023-05-20T10:23:36.513Z,43.28
2023-05-20T10:26:03.022Z,42.85
2023-05-20T10:28:29.653Z,41.86
2023-05-20T10:30:56.309Z,44.18
2023-05-20T10:33:22.961Z,44.32
2023-05-20T10:35:49.576Z,43.46
2023-05-20T10:38:16.193Z,42.80
2023-05-20T10:40:42.685Z,44.45
2023-05-20T10:43:09.276Z,43.93
2023-05-20T10:45:35.811Z,44.43
2023-05-20T10:48:02.354Z,42.00
2023-05-20T10:50:28.938Z,43.05
2023-05-20T10:52:55.689Z,45.39
2023-05-20T10:55:22.218Z,43.58
2023-05-20T10:57:48.787Z,43.85
2023-05-20T11:00:15.473Z,43.39
2023-05-20T11:02:42.186Z,43.19
2023-05-20T11:05:08.812Z,45.57
2023-05-20T11:07:35.427Z,40.79
2023-05-20T11:10:02.017Z,42.52
2023-05-20T11:12:28.562Z,45.46
2023-05-20T11:14:55.183Z,41.83
2023-05-20T11:17:21.906Z,44.66
2023-05-20T11:19:48.444Z,41.80
2023-05-20T11:22:15.031Z,41.43
2023-05-20T11:24:41.561Z,40.53
2023-05-20T11:27:08.171Z,41.83
2023-05-20T11:29:34.658Z,41.17
2023-05-20T11:32:01.232Z,42.53
2023-05-20T11:34:29.304Z,41.98
2023-05-20T11:36:56.639Z,41.61
2023-05-20T11:39:23.184Z,42.09
2023-05-20T11:41:49.800Z,42.82
2023-05-20T11:44:16.341Z,40.97
2023-05-20T11:46:43.017Z,44.56
2023-05-20T11:49:09.727Z,41.08
2023-05-20T11:51:36.227Z,44.72
2023-05-20T11:54:02.751Z,43.14
2023-05-20T11:56:29.362Z,43.59
2023-05-20T11:58:55.922Z,43.80
2023-05-20T12:01:23.320Z,43.14
2023-05-20T12:03:50.432Z,42.65
2023-05-20T12:06:17.302Z,41.67
2023-05-20T12:08:43.964Z,42.86
2023-05-20T12:11:10.582Z,43.07
2023-05-20T12:13:37.249Z,43.09
2023-05-20T12:16:03.868Z,43.85
2023-05-20T12:18:30.483Z,42.58
2023-05-20T12:20:57.088Z,43.44
2023-05-20T12:23:23.651Z,43.92
2023-05-20T12:25:50.239Z,42.55
2023-05-20T12:28:16.778Z,43.31
2023-05-20T12:30:43.369Z,41.03
2023-05-20T12:33:11.006Z,41.60
2023-05-20T12:35:37.591Z,41.47
2023-05-20T12:38:04.103Z,43.54
2023-05-20T12:40:30.621Z,42.39
2023-05-20T12:42:57.161Z,41.77
2023-05-20T12:45:23.752Z,38.67
2023-05-20T12:47:50.442Z,43.37
2023-05-20T12:50:17.036Z,45.89
2023-05-20T12:52:43.599Z,42.32
2023-05-20T12:55:10.096Z,41.13
2023-05-20T12:57:36.722Z,42.48
2023-05-20T13:00:03.363Z,42.33
2023-05-20T13:02:30.076Z,42.52
2023-05-20T13:04:56.739Z,43.10
2023-05-20T13:07:23.298Z,44.50
2023-05-20T13:09:49.908Z,44.80
2023-05-20T13:12:16.508Z,43.44
2023-05-20T13:14:43.131Z,45.86
2023-05-20T13:17:09.842Z,46.78
2023-05-20T13:19:36.599Z,47.44
2023-05-20T13:22:03.228Z,42.99
2023-05-20T13:24:29.911Z,44.89
2023-05-20T13:26:56.433Z,43.76
2023-05-20T13:29:23.028Z,45.79
2023-05-20T13:31:49.656Z,47.78
2023-05-20T13:34:16.209Z,47.25
2023-05-20T13:36:42.801Z,45.92
2023-05-20T13:39:09.523Z,44.43
2023-05-20T13:41:36.106Z,44.31
2023-05-20T13:44:02.683Z,46.01
2023-05-20T13:46:29.326Z,46.41
2023-05-20T13:48:55.890Z,48.24
2023-05-20T13:51:22.440Z,45.51
2023-05-20T13:53:49.065Z,48.06
2023-05-20T13:56:15.678Z,46.94
2023-05-20T13:58:42.242Z,44.20
2023-05-20T14:01:08.904Z,47.75
2023-05-20T14:03:35.494Z,46.81
2023-05-20T14:06:02.185Z,45.83
2023-05-20T14:08:28.719Z,47.18
2023-05-20T14:10:55.277Z,46.34
2023-05-20T14:13:21.877Z,47.56
2023-05-20T14:15:48.540Z,48.54
2023-05-20T14:18:15.229Z,49.22
2023-05-20T14:20:41.770Z,46.60
2023-05-20T14:23:08.406Z,51.00
2023-05-20T14:25:35.051Z,50.10
2023-05-20T14:28:01.684Z,48.66
2023-05-20T14:30:28.312Z,50.25
2023-05-20T14:32:55.059Z,49.79
2023-05-20T14:35:21.830Z,49.51
2023-05-20T14:37:48.372Z,50.95
2023-05-20T14:40:14.990Z,50.89
2023-05-20T14:42:41.573Z,50.57
2023-05-20T14:45:08.171Z,51.24
2023-05-20T14:47:34.805Z,49.70
2023-05-20T14:50:01.344Z,50.09
2023-05-20T14:52:27.887Z,50.38
2023-05-20T14:54:54.554Z,49.02
2023-05-20T14:57:21.084Z,50.49
2023-05-20T14:59:47.593Z,51.27
2023-05-20T15:02:15.665Z,52.79
2023-05-20T15:04:42.513Z,52.92
2023-05-20T15:07:09.080Z,52.74
2023-05-20T15:09:35.740Z,51.73
2023-05-20T15:12:02.355Z,50.62
2023-05-20T15:14:28.961Z,53.23
2023-05-20T15:16:55.556Z,53.38
2023-05-20T15:19:22.290Z,52.32
2023-05-20T15:21:48.971Z,52.44
2023-05-20T15:24:15.601Z,51.17
2023-05-20T15:26:42.187Z,53.41
2023-05-20T15:29:08.792Z,53.83
2023-05-20T15:31:35.391Z,55.50
2023-05-20T15:34:02.041Z,50.64
2023-05-20T15:36:28.699Z,52.34
2023-05-20T15:38:55.309Z,52.21
2023-05-20T15:41:21.959Z,52.16
2023-05-20T15:43:48.532Z,56.23
2023-05-20T15:46:15.031Z,53.93
2023-05-20T15:48:41.675Z,53.70
2023-05-20T15:51:08.272Z,53.67
2023-05-20T15:53:36.122Z,53.34
2023-05-20T15:56:03.412Z,56.47
2023-05-20T15:58:30.116Z,56.54
2023-05-20T16:00:56.747Z,54.42
2023-05-20T16:03:23.471Z,54.19
2023-05-20T16:05:50.172Z,54.44
2023-05-20T16:08:16.738Z,52.81
2023-05-20T16:10:43.289Z,55.35
2023-05-20T16:13:09.932Z,56.78
2023-05-20T16:15:36.600Z,56.75
2023-05-20T16:18:03.290Z,54.24
2023-05-20T16:20:29.896Z,55.12
2023-05-20T16:22:56.408Z,59.63
2023-05-20T16:25:23.042Z,54.63
2023-05-20T16:27:49.581Z,56.15
2023-05-20T16:30:16.100Z,58.39
2023-05-20T16:32:42.665Z,57.96
2023-05-20T16:35:09.312Z,56.39
2023-05-20T16:37:35.926Z,55.95
2023-05-20T16:40:02.527Z,56.96
2023-05-20T16:42:29.098Z,56.16
2023-05-20T16:44:55.706Z,57.61
2023-05-20T16:47:22.370Z,53.88
2023-05-20T16:49:49.037Z,55.83
2023-05-20T16:52:15.677Z,58.01
2023-05-20T16:54:42.257Z,58.73
2023-05-20T16:57:08.852Z,59.68
2023-05-20T16:59:35.465Z,55.81
2023-05-20T17:02:02.109Z,55.01
2023-05-20T17:04:28.828Z,56.52
2023-05-20T17:06:55.399Z,54.54
2023-05-20T17:09:21.985Z,54.33
2023-05-20T17:11:48.497Z,57.32
2023-05-20T17:14:15.088Z,57.47
2023-05-20T17:16:41.603Z,56.62
2023-05-20T17:19:08.263Z,113.07
2023-05-20T17:21:34.837Z,239.02
2023-05-20T17:24:01.319Z,149.48
2023-05-20T17:26:27.827Z,157.99
2023-05-20T17:28:54.365Z,149.72
2023-05-20T17:31:20.877Z,159.24
2023-05-20T17:33:47.518Z,164.36
2023-05-20T17:36:14.124Z,173.26
2023-05-20T17:38:40.711Z,173.45
2023-05-20T17:41:07.292Z,179.01
2023-05-20T17:43:33.851Z,181.43
2023-05-20T17:46:00.363Z,178.30
2023-05-20T17:48:26.963Z,181.59
2023-05-20T17:50:53.552Z,188.70
2023-05-20T17:53:21.736Z,215.76
2023-05-20T17:55:48.533Z,212.01
2023-05-20T17:58:14.997Z,215.16
2023-05-20T18:00:41.552Z,207.21
2023-05-20T18:03:08.121Z,207.75
2023-05-20T18:05:34.713Z,205.93
2023-05-20T18:08:01.431Z,191.79
2023-05-20T18:10:27.967Z,191.10
2023-05-20T18:12:54.559Z,195.98
2023-05-20T18:15:21.116Z,196.64
2023-05-20T18:17:47.676Z,197.04
2023-05-20T18:20:15.688Z,192.65
2023-05-20T18:22:42.209Z,193.28
2023-05-20T18:25:08.711Z,184.11
2023-05-20T18:27:35.247Z,185.61
2023-05-20T18:30:01.707Z,183.47
2023-05-20T18:32:28.263Z,180.76
2023-05-20T18:34:54.818Z,175.87
2023-05-20T18:37:21.344Z,177.62
2023-05-20T18:39:47.815Z,182.92
2023-05-20T18:42:14.472Z,175.30
2023-05-20T18:44:40.992Z,176.07
2023-05-20T18:47:07.600Z,176.74
2023-05-20T18:49:34.187Z,174.59
2023-05-20T18:52:00.653Z,174.39
2023-05-20T18:54:27.355Z,167.25
2023-05-20T18:56:53.823Z,167.55
2023-05-20T18:59:20.438Z,161.99
2023-05-20T19:01:47.054Z,165.43
2023-05-20T19:04:13.616Z,162.83
2023-05-20T19:06:40.227Z,158.39
2023-05-20T19:09:06.867Z,160.32
2023-05-20T19:11:33.474Z,160.23
2023-05-20T19:13:59.999Z,157.04
2023-05-20T19:16:26.602Z,154.04
2023-05-20T19:18:53.215Z,154.40
2023-05-20T19:21:19.755Z,154.01
2023-05-20T19:23:46.294Z,154.20
2023-05-20T19:26:12.920Z,152.04
2023-05-20T19:28:39.454Z,149.56
2023-05-20T19:31:06.107Z,148.43
2023-05-20T19:33:35.752Z,140.96
2023-05-20T19:36:02.380Z,147.55
2023-05-20T19:38:28.967Z,145.09
2023-05-20T19:40:55.595Z,144.32
2023-05-20T19:43:22.082Z,147.29
2023-05-20T19:45:48.703Z,141.99
2023-05-20T19:48:15.295Z,144.13
2023-05-20T19:50:41.856Z,143.42
2023-05-20T19:53:08.403Z,141.80
2023-05-20T19:55:35.384Z,145.23
2023-05-20T19:58:02.409Z,137.00
2023-05-20T20:00:28.978Z,137.13
2023-05-20T20:02:55.611Z,138.94
2023-05-20T20:05:25.279Z,134.36
2023-05-20T20:07:51.845Z,131.79
2023-05-20T20:10:18.437Z,132.16
2023-05-20T20:12:45.080Z,132.93
2023-05-20T20:15:11.660Z,133.11
2023-05-20T20:17:38.299Z,135.59
2023-05-20T20:20:04.902Z,129.54
2023-05-20T20:22:31.617Z,131.27
2023-05-20T20:24:58.288Z,130.22
2023-05-20T20:27:24.788Z,131.08
2023-05-20T20:29:51.491Z,127.41
2023-05-20T20:32:18.389Z,125.67
2023-05-20T20:34:45.173Z,124.24
2023-05-20T20:37:11.749Z,128.07
2023-05-20T20:39:38.261Z,125.98
2023-05-20T20:42:04.793Z,123.37
2023-05-20T20:44:31.431Z,122.54
2023-05-20T20:46:58.070Z,119.68
2023-05-20T20:49:26.335Z,122.33
2023-05-20T20:51:54.387Z,118.97
2023-05-20T20:54:20.934Z,121.54
2023-05-20T20:56:47.521Z,119.04
2023-05-20T20:59:14.106Z,115.52
2023-05-20T21:01:40.655Z,118.50
2023-05-20T21:04:07.228Z,116.47
2023-05-20T21:06:33.861Z,119.89
2023-05-20T21:09:00.468Z,115.48
2023-05-20T21:11:26.978Z,116.97
2023-05-20T21:13:53.570Z,119.58
2023-05-20T21:16:20.170Z,118.56
2023-05-20T21:18:46.719Z,114.42
2023-05-20T21:21:13.287Z,116.49
2023-05-20T21:23:39.854Z,113.66
2023-05-20T21:26:06.389Z,117.49
2023-05-20T21:28:32.967Z,115.60
2023-05-20T21:30:59.581Z,118.29
2023-05-20T21:33:26.229Z,112.53
2023-05-20T21:35:52.817Z,111.62
2023-05-20T21:38:19.396Z,111.09
2023-05-20T21:40:45.960Z,111.31
2023-05-20T21:43:12.512Z,108.86
2023-05-20T21:45:39.134Z,108.61
2023-05-20T21:48:05.770Z,107.80
2023-05-20T21:50:32.354Z,108.45
2023-05-20T21:52:58.902Z,105.49
2023-05-20T21:55:25.464Z,110.91
2023-05-20T21:57:52.033Z,105.07
2023-05-20T22:00:18.591Z,109.82
2023-05-20T22:02:45.253Z,107.20
2023-05-20T22:05:11.894Z,105.03
2023-05-20T22:07:38.495Z,106.09
2023-05-20T22:10:05.145Z,105.16
2023-05-20T22:12:31.760Z,106.88
2023-05-20T22:14:58.316Z,104.91
2023-05-20T22:17:24.979Z,105.88
2023-05-20T22:19:51.735Z,107.31
2023-05-20T22:22:18.301Z,106.69
2023-05-20T22:24:44.831Z,104.95
2023-05-20T22:27:11.392Z,102.48
2023-05-20T22:29:37.956Z,102.18
2023-05-20T22:32:04.564Z,104.36
2023-05-20T22:34:31.081Z,104.22
2023-05-20T22:36:57.631Z,99.98
2023-05-20T22:39:24.197Z,99.30
2023-05-20T22:41:50.686Z,105.59
2023-05-20T22:44:17.266Z,101.88
2023-05-20T22:46:43.861Z,102.61
2023-05-20T22:49:10.422Z,102.18
2023-05-20T22:51:37.018Z,100.25
2023-05-20T22:54:03.565Z,100.39
2023-05-20T22:56:33.291Z,101.28
2023-05-20T22:58:59.739Z,99.87
2023-05-20T23:01:26.358Z,101.12
2023-05-20T23:03:52.969Z,96.10
2023-05-20T23:06:19.513Z,93.22
2023-05-20T23:08:46.095Z,102.20
2023-05-20T23:11:12.688Z,99.18
2023-05-20T23:13:39.236Z,93.63
2023-05-20T23:16:05.900Z,98.96
2023-05-20T23:18:32.570Z,97.30
2023-05-20T23:20:59.152Z,95.83
2023-05-20T23:23:31.165Z,96.75
2023-05-20T23:25:58.792Z,93.19
2023-05-20T23:28:25.540Z,95.94
2023-05-20T23:30:52.158Z,96.06
2023-05-20T23:33:22.883Z,95.15
2023-05-20T23:35:51.569Z,96.55
2023-05-20T23:38:18.294Z,96.72
2023-05-20T23:40:44.948Z,94.31
2023-05-20T23:43:11.423Z,95.09
2023-05-20T23:45:38.037Z,91.42
2023-05-20T23:48:04.749Z,92.99
2023-05-20T23:50:31.377Z,95.84
2023-05-20T23:52:58.001Z,93.93
2023-05-20T23:55:24.544Z,92.79
2023-05-20T23:57:51.095Z,91.93
